sensor_id;sensor_type;location;lat;lon;timestamp;temperature;humidity
73780;SHT30;62093;37.614;15.072;2024-01-06T00:01:41;16.67;60.88
73780;SHT30;62093;37.614;15.072;2024-01-06T00:04:13;16.69;61.03
73780;SHT30;62093;37.614;15.072;2024-01-06T00:06:43;16.70;60.93
73780;SHT30;62093;37.614;15.072;2024-01-06T00:09:11;16.69;61.09
73780;SHT30;62093;37.614;15.072;2024-01-06T00:11:39;16.70;61.00
73780;SHT30;62093;37.614;15.072;2024-01-06T00:14:09;16.67;61.22
73780;SHT30;62093;37.614;15.072;2024-01-06T00:16:37;16.66;61.12
73780;SHT30;62093;37.614;15.072;2024-01-06T00:19:05;16.70;61.22
73780;SHT30;62093;37.614;15.072;2024-01-06T00:21:34;16.70;61.07
73780;SHT30;62093;37.614;15.072;2024-01-06T00:24:05;16.69;61.19
73780;SHT30;62093;37.614;15.072;2024-01-06T00:26:33;16.69;61.14
73780;SHT30;62093;37.614;15.072;2024-01-06T00:29:01;16.67;61.14
73780;SHT30;62093;37.614;15.072;2024-01-06T00:31:28;16.72;61.33
73780;SHT30;62093;37.614;15.072;2024-01-06T00:33:56;16.72;61.23
73780;SHT30;62093;37.614;15.072;2024-01-06T00:36:26;16.72;61.28
73780;SHT30;62093;37.614;15.072;2024-01-06T00:38:55;16.69;61.21
73780;SHT30;62093;37.614;15.072;2024-01-06T00:41:22;16.70;61.31
73780;SHT30;62093;37.614;15.072;2024-01-06T00:43:50;16.72;61.32
73780;SHT30;62093;37.614;15.072;2024-01-06T00:46:17;16.72;61.42
73780;SHT30;62093;37.614;15.072;2024-01-06T00:48:43;16.72;61.39
73780;SHT30;62093;37.614;15.072;2024-01-06T00:51:09;16.69;61.18
73780;SHT30;62093;37.614;15.072;2024-01-06T00:53:35;16.69;61.21
73780;SHT30;62093;37.614;15.072;2024-01-06T00:56:01;16.70;61.39
73780;SHT30;62093;37.614;15.072;2024-01-06T00:58:27;16.72;61.35
73780;SHT30;62093;37.614;15.072;2024-01-06T01:00:52;16.72;61.29
73780;SHT30;62093;37.614;15.072;2024-01-06T01:03:18;16.72;61.45
73780;SHT30;62093;37.614;15.072;2024-01-06T01:05:44;16.72;61.45
73780;SHT30;62093;37.614;15.072;2024-01-06T01:08:10;16.72;61.41
73780;SHT30;62093;37.614;15.072;2024-01-06T01:10:36;16.72;61.49
73780;SHT30;62093;37.614;15.072;2024-01-06T01:13:02;16.70;61.43
73780;SHT30;62093;37.614;15.072;2024-01-06T01:15:28;16.72;61.44
73780;SHT30;62093;37.614;15.072;2024-01-06T01:17:54;16.72;61.63
73780;SHT30;62093;37.614;15.072;2024-01-06T01:20:20;16.72;61.56
73780;SHT30;62093;37.614;15.072;2024-01-06T01:22:46;16.70;61.54
73780;SHT30;62093;37.614;15.072;2024-01-06T01:25:12;16.67;61.49
73780;SHT30;62093;37.614;15.072;2024-01-06T01:27:38;16.70;61.67
73780;SHT30;62093;37.614;15.072;2024-01-06T01:30:05;16.72;61.56
73780;SHT30;62093;37.614;15.072;2024-01-06T01:32:31;16.69;61.65
73780;SHT30;62093;37.614;15.072;2024-01-06T01:34:57;16.72;61.68
73780;SHT30;62093;37.614;15.072;2024-01-06T01:37:22;16.72;61.68
73780;SHT30;62093;37.614;15.072;2024-01-06T01:39:48;16.72;61.65
73780;SHT30;62093;37.614;15.072;2024-01-06T01:42:14;16.72;61.54
73780;SHT30;62093;37.614;15.072;2024-01-06T01:44:40;16.70;61.59
73780;SHT30;62093;37.614;15.072;2024-01-06T01:47:07;16.70;61.69
73780;SHT30;62093;37.614;15.072;2024-01-06T01:49:33;16.72;61.61
73780;SHT30;62093;37.614;15.072;2024-01-06T01:51:59;16.70;61.69
73780;SHT30;62093;37.614;15.072;2024-01-06T01:54:25;16.69;61.71
73780;SHT30;62093;37.614;15.072;2024-01-06T01:56:52;16.69;61.72
73780;SHT30;62093;37.614;15.072;2024-01-06T01:59:18;16.69;61.67
73780;SHT30;62093;37.614;15.072;2024-01-06T02:01:45;16.70;61.72
73780;SHT30;62093;37.614;15.072;2024-01-06T02:04:12;16.70;61.61
73780;SHT30;62093;37.614;15.072;2024-01-06T02:06:38;16.70;61.76
73780;SHT30;62093;37.614;15.072;2024-01-06T02:09:04;16.70;61.67
73780;SHT30;62093;37.614;15.072;2024-01-06T02:11:31;16.70;61.71
73780;SHT30;62093;37.614;15.072;2024-01-06T02:13:57;16.70;61.93
73780;SHT30;62093;37.614;15.072;2024-01-06T02:16:24;16.72;61.84
73780;SHT30;62093;37.614;15.072;2024-01-06T02:18:50;16.70;61.82
73780;SHT30;62093;37.614;15.072;2024-01-06T02:21:21;16.73;61.79
73780;SHT30;62093;37.614;15.072;2024-01-06T02:23:49;16.73;61.89
73780;SHT30;62093;37.614;15.072;2024-01-06T02:26:16;16.72;61.85
73780;SHT30;62093;37.614;15.072;2024-01-06T02:28:43;16.73;61.95
73780;SHT30;62093;37.614;15.072;2024-01-06T02:31:13;16.70;61.82
73780;SHT30;62093;37.614;15.072;2024-01-06T02:33:40;16.70;61.72
73780;SHT30;62093;37.614;15.072;2024-01-06T02:36:06;16.72;61.79
73780;SHT30;62093;37.614;15.072;2024-01-06T02:38:32;16.70;61.89
73780;SHT30;62093;37.614;15.072;2024-01-06T02:40:58;16.72;61.87
73780;SHT30;62093;37.614;15.072;2024-01-06T02:43:24;16.72;61.81
73780;SHT30;62093;37.614;15.072;2024-01-06T02:45:50;16.70;61.87
73780;SHT30;62093;37.614;15.072;2024-01-06T02:48:16;16.70;61.87
73780;SHT30;62093;37.614;15.072;2024-01-06T02:50:42;16.70;61.90
73780;SHT30;62093;37.614;15.072;2024-01-06T02:53:08;16.70;61.95
73780;SHT30;62093;37.614;15.072;2024-01-06T02:55:35;16.73;62.07
73780;SHT30;62093;37.614;15.072;2024-01-06T02:58:01;16.70;61.99
73780;SHT30;62093;37.614;15.072;2024-01-06T03:00:27;16.69;62.00
73780;SHT30;62093;37.614;15.072;2024-01-06T03:02:53;16.69;62.03
73780;SHT30;62093;37.614;15.072;2024-01-06T03:05:19;16.70;61.99
73780;SHT30;62093;37.614;15.072;2024-01-06T03:07:45;16.69;62.07
73780;SHT30;62093;37.614;15.072;2024-01-06T03:10:11;16.70;62.08
73780;SHT30;62093;37.614;15.072;2024-01-06T03:12:37;16.67;62.13
73780;SHT30;62093;37.614;15.072;2024-01-06T03:15:03;16.67;62.10
73780;SHT30;62093;37.614;15.072;2024-01-06T03:17:30;16.67;62.18
73780;SHT30;62093;37.614;15.072;2024-01-06T03:19:57;16.66;62.15
73780;SHT30;62093;37.614;15.072;2024-01-06T03:22:24;16.66;62.13
73780;SHT30;62093;37.614;15.072;2024-01-06T03:24:51;16.66;62.19
73780;SHT30;62093;37.614;15.072;2024-01-06T03:27:18;16.66;62.28
73780;SHT30;62093;37.614;15.072;2024-01-06T03:29:46;16.66;62.18
73780;SHT30;62093;37.614;15.072;2024-01-06T03:32:13;16.64;62.28
73780;SHT30;62093;37.614;15.072;2024-01-06T03:34:40;16.67;62.45
73780;SHT30;62093;37.614;15.072;2024-01-06T03:37:06;16.66;62.39
73780;SHT30;62093;37.614;15.072;2024-01-06T03:39:32;16.64;62.46
73780;SHT30;62093;37.614;15.072;2024-01-06T03:41:59;16.66;62.49
73780;SHT30;62093;37.614;15.072;2024-01-06T03:44:25;16.66;62.54
73780;SHT30;62093;37.614;15.072;2024-01-06T03:46:58;16.64;62.56
73780;SHT30;62093;37.614;15.072;2024-01-06T03:49:25;16.67;62.53
73780;SHT30;62093;37.614;15.072;2024-01-06T03:51:51;16.66;62.58
73780;SHT30;62093;37.614;15.072;2024-01-06T03:54:17;16.66;62.62
73780;SHT30;62093;37.614;15.072;2024-01-06T03:56:44;16.64;62.64
73780;SHT30;62093;37.614;15.072;2024-01-06T03:59:10;16.66;62.70
73780;SHT30;62093;37.614;15.072;2024-01-06T04:01:36;16.66;62.64
73780;SHT30;62093;37.614;15.072;2024-01-06T04:04:02;16.63;62.77
73780;SHT30;62093;37.614;15.072;2024-01-06T04:06:29;16.63;62.76
73780;SHT30;62093;37.614;15.072;2024-01-06T04:08:55;16.66;62.77
73780;SHT30;62093;37.614;15.072;2024-01-06T04:11:21;16.66;62.83
73780;SHT30;62093;37.614;15.072;2024-01-06T04:13:47;16.64;62.83
73780;SHT30;62093;37.614;15.072;2024-01-06T04:16:13;16.66;62.87
73780;SHT30;62093;37.614;15.072;2024-01-06T04:18:40;16.66;62.92
73780;SHT30;62093;37.614;15.072;2024-01-06T04:21:06;16.66;62.94
73780;SHT30;62093;37.614;15.072;2024-01-06T04:23:32;16.67;62.93
73780;SHT30;62093;37.614;15.072;2024-01-06T04:25:58;16.66;62.96
73780;SHT30;62093;37.614;15.072;2024-01-06T04:28:24;16.67;62.99
73780;SHT30;62093;37.614;15.072;2024-01-06T04:30:52;16.64;63.03
73780;SHT30;62093;37.614;15.072;2024-01-06T04:33:17;16.64;63.04
73780;SHT30;62093;37.614;15.072;2024-01-06T04:35:43;16.66;63.05
73780;SHT30;62093;37.614;15.072;2024-01-06T04:38:10;16.66;63.11
73780;SHT30;62093;37.614;15.072;2024-01-06T04:40:37;16.63;63.13
73780;SHT30;62093;37.614;15.072;2024-01-06T04:43:03;16.67;63.13
73780;SHT30;62093;37.614;15.072;2024-01-06T04:45:30;16.64;63.19
73780;SHT30;62093;37.614;15.072;2024-01-06T04:47:55;16.64;63.24
73780;SHT30;62093;37.614;15.072;2024-01-06T04:50:21;16.64;63.30
73780;SHT30;62093;37.614;15.072;2024-01-06T04:52:48;16.67;63.28
73780;SHT30;62093;37.614;15.072;2024-01-06T04:55:13;16.62;63.32
73780;SHT30;62093;37.614;15.072;2024-01-06T04:57:39;16.64;63.31
73780;SHT30;62093;37.614;15.072;2024-01-06T05:00:06;16.66;63.36
73780;SHT30;62093;37.614;15.072;2024-01-06T05:02:32;16.63;63.35
73780;SHT30;62093;37.614;15.072;2024-01-06T05:04:58;16.64;63.41
73780;SHT30;62093;37.614;15.072;2024-01-06T05:07:24;16.64;63.43
73780;SHT30;62093;37.614;15.072;2024-01-06T05:09:50;16.66;63.46
73780;SHT30;62093;37.614;15.072;2024-01-06T05:12:16;16.66;63.47
73780;SHT30;62093;37.614;15.072;2024-01-06T05:14:42;16.63;63.47
73780;SHT30;62093;37.614;15.072;2024-01-06T05:17:08;16.64;63.52
73780;SHT30;62093;37.614;15.072;2024-01-06T05:19:35;16.64;63.55
73780;SHT30;62093;37.614;15.072;2024-01-06T05:22:01;16.63;63.55
73780;SHT30;62093;37.614;15.072;2024-01-06T05:24:27;16.64;63.55
73780;SHT30;62093;37.614;15.072;2024-01-06T05:26:53;16.63;63.62
73780;SHT30;62093;37.614;15.072;2024-01-06T05:29:19;16.66;63.65
73780;SHT30;62093;37.614;15.072;2024-01-06T05:31:45;16.64;63.63
73780;SHT30;62093;37.614;15.072;2024-01-06T05:34:12;16.63;63.72
73780;SHT30;62093;37.614;15.072;2024-01-06T05:36:38;16.62;63.69
73780;SHT30;62093;37.614;15.072;2024-01-06T05:39:04;16.66;63.71
73780;SHT30;62093;37.614;15.072;2024-01-06T05:41:40;16.64;63.73
73780;SHT30;62093;37.614;15.072;2024-01-06T05:44:06;16.64;63.68
73780;SHT30;62093;37.614;15.072;2024-01-06T05:46:34;16.66;63.71
73780;SHT30;62093;37.614;15.072;2024-01-06T05:49:00;16.64;63.74
73780;SHT30;62093;37.614;15.072;2024-01-06T05:51:26;16.66;63.80
73780;SHT30;62093;37.614;15.072;2024-01-06T05:53:53;16.66;63.81
73780;SHT30;62093;37.614;15.072;2024-01-06T05:56:24;16.64;63.82
73780;SHT30;62093;37.614;15.072;2024-01-06T05:58:52;16.66;63.84
73780;SHT30;62093;37.614;15.072;2024-01-06T06:01:20;16.66;63.87
73780;SHT30;62093;37.614;15.072;2024-01-06T06:03:47;16.64;63.88
73780;SHT30;62093;37.614;15.072;2024-01-06T06:06:14;16.64;63.89
73780;SHT30;62093;37.614;15.072;2024-01-06T06:08:53;16.63;63.85
73780;SHT30;62093;37.614;15.072;2024-01-06T06:11:30;16.63;63.94
73780;SHT30;62093;37.614;15.072;2024-01-06T06:13:57;16.63;63.94
73780;SHT30;62093;37.614;15.072;2024-01-06T06:16:23;16.63;63.95
73780;SHT30;62093;37.614;15.072;2024-01-06T06:18:52;16.64;64.00
73780;SHT30;62093;37.614;15.072;2024-01-06T06:21:18;16.63;63.96
73780;SHT30;62093;37.614;15.072;2024-01-06T06:23:46;16.64;64.00
73780;SHT30;62093;37.614;15.072;2024-01-06T06:26:13;16.66;64.03
73780;SHT30;62093;37.614;15.072;2024-01-06T06:28:41;16.66;64.03
73780;SHT30;62093;37.614;15.072;2024-01-06T06:31:11;16.64;64.04
73780;SHT30;62093;37.614;15.072;2024-01-06T06:33:39;16.64;64.08
73780;SHT30;62093;37.614;15.072;2024-01-06T06:36:07;16.63;64.08
73780;SHT30;62093;37.614;15.072;2024-01-06T06:38:36;16.66;64.12
73780;SHT30;62093;37.614;15.072;2024-01-06T06:41:05;16.64;64.15
73780;SHT30;62093;37.614;15.072;2024-01-06T06:43:32;16.64;64.14
73780;SHT30;62093;37.614;15.072;2024-01-06T06:46:00;16.64;64.15
73780;SHT30;62093;37.614;15.072;2024-01-06T06:48:27;16.67;64.18
73780;SHT30;62093;37.614;15.072;2024-01-06T06:50:54;16.66;64.16
73780;SHT30;62093;37.614;15.072;2024-01-06T06:53:21;16.64;64.18
73780;SHT30;62093;37.614;15.072;2024-01-06T06:55:46;16.63;64.27
73780;SHT30;62093;37.614;15.072;2024-01-06T06:58:13;16.64;64.23
73780;SHT30;62093;37.614;15.072;2024-01-06T07:00:39;16.64;64.21
73780;SHT30;62093;37.614;15.072;2024-01-06T07:03:05;16.62;64.28
73780;SHT30;62093;37.614;15.072;2024-01-06T07:05:30;16.63;64.33
73780;SHT30;62093;37.614;15.072;2024-01-06T07:08:00;16.64;64.32
73780;SHT30;62093;37.614;15.072;2024-01-06T07:10:27;16.67;64.35
73780;SHT30;62093;37.614;15.072;2024-01-06T07:12:53;16.64;64.30
73780;SHT30;62093;37.614;15.072;2024-01-06T07:15:19;16.66;64.34
73780;SHT30;62093;37.614;15.072;2024-01-06T07:17:45;16.66;64.36
73780;SHT30;62093;37.614;15.072;2024-01-06T07:20:10;16.66;64.37
73780;SHT30;62093;37.614;15.072;2024-01-06T07:22:36;16.66;64.39
73780;SHT30;62093;37.614;15.072;2024-01-06T07:25:03;16.63;64.38
73780;SHT30;62093;37.614;15.072;2024-01-06T07:27:29;16.66;64.40
73780;SHT30;62093;37.614;15.072;2024-01-06T07:29:55;16.64;64.39
73780;SHT30;62093;37.614;15.072;2024-01-06T07:32:22;16.63;64.42
73780;SHT30;62093;37.614;15.072;2024-01-06T07:34:49;16.64;64.47
73780;SHT30;62093;37.614;15.072;2024-01-06T07:37:14;16.64;64.51
73780;SHT30;62093;37.614;15.072;2024-01-06T07:39:41;16.64;64.51
73780;SHT30;62093;37.614;15.072;2024-01-06T07:42:07;16.63;64.49
73780;SHT30;62093;37.614;15.072;2024-01-06T07:44:33;16.63;64.55
73780;SHT30;62093;37.614;15.072;2024-01-06T07:46:59;16.66;64.55
73780;SHT30;62093;37.614;15.072;2024-01-06T07:49:27;16.63;64.55
73780;SHT30;62093;37.614;15.072;2024-01-06T07:51:53;16.64;64.57
73780;SHT30;62093;37.614;15.072;2024-01-06T07:54:19;16.66;64.52
73780;SHT30;62093;37.614;15.072;2024-01-06T07:56:45;16.66;64.46
73780;SHT30;62093;37.614;15.072;2024-01-06T07:59:11;16.67;64.53
73780;SHT30;62093;37.614;15.072;2024-01-06T08:01:37;16.64;64.53
73780;SHT30;62093;37.614;15.072;2024-01-06T08:04:03;16.66;64.51
73780;SHT30;62093;37.614;15.072;2024-01-06T08:06:29;16.66;64.45
73780;SHT30;62093;37.614;15.072;2024-01-06T08:08:55;16.64;64.43
73780;SHT30;62093;37.614;15.072;2024-01-06T08:11:21;16.64;64.45
73780;SHT30;62093;37.614;15.072;2024-01-06T08:13:47;16.66;64.44
73780;SHT30;62093;37.614;15.072;2024-01-06T08:16:13;16.66;64.41
73780;SHT30;62093;37.614;15.072;2024-01-06T08:18:39;16.67;64.43
73780;SHT30;62093;37.614;15.072;2024-01-06T08:21:05;16.69;64.38
73780;SHT30;62093;37.614;15.072;2024-01-06T08:23:31;16.69;64.34
73780;SHT30;62093;37.614;15.072;2024-01-06T08:25:57;16.69;64.34
73780;SHT30;62093;37.614;15.072;2024-01-06T08:28:23;16.67;64.34
73780;SHT30;62093;37.614;15.072;2024-01-06T08:30:49;16.69;64.32
73780;SHT30;62093;37.614;15.072;2024-01-06T08:33:15;16.70;64.29
73780;SHT30;62093;37.614;15.072;2024-01-06T08:35:43;16.70;64.27
73780;SHT30;62093;37.614;15.072;2024-01-06T08:38:09;16.70;64.24
73780;SHT30;62093;37.614;15.072;2024-01-06T08:40:36;16.72;64.19
73780;SHT30;62093;37.614;15.072;2024-01-06T08:43:03;16.69;64.19
73780;SHT30;62093;37.614;15.072;2024-01-06T08:45:29;16.73;64.17
73780;SHT30;62093;37.614;15.072;2024-01-06T08:47:55;16.72;64.13
73780;SHT30;62093;37.614;15.072;2024-01-06T08:50:21;16.72;64.17
73780;SHT30;62093;37.614;15.072;2024-01-06T08:52:47;16.72;64.17
73780;SHT30;62093;37.614;15.072;2024-01-06T08:55:13;16.76;64.14
73780;SHT30;62093;37.614;15.072;2024-01-06T08:57:39;16.76;64.11
73780;SHT30;62093;37.614;15.072;2024-01-06T09:00:08;16.74;64.13
73780;SHT30;62093;37.614;15.072;2024-01-06T09:02:36;16.74;64.12
73780;SHT30;62093;37.614;15.072;2024-01-06T09:05:02;16.76;64.17
73780;SHT30;62093;37.614;15.072;2024-01-06T09:07:28;16.77;64.16
73780;SHT30;62093;37.614;15.072;2024-01-06T09:09:53;16.77;64.12
73780;SHT30;62093;37.614;15.072;2024-01-06T09:12:19;16.76;64.17
73780;SHT30;62093;37.614;15.072;2024-01-06T09:14:46;16.79;64.17
73780;SHT30;62093;37.614;15.072;2024-01-06T09:17:13;16.80;64.15
73780;SHT30;62093;37.614;15.072;2024-01-06T09:19:39;16.79;64.10
73780;SHT30;62093;37.614;15.072;2024-01-06T09:22:05;16.79;64.09
73780;SHT30;62093;37.614;15.072;2024-01-06T09:24:30;16.77;64.08
73780;SHT30;62093;37.614;15.072;2024-01-06T09:26:57;16.80;64.04
73780;SHT30;62093;37.614;15.072;2024-01-06T09:29:23;16.79;64.02
73780;SHT30;62093;37.614;15.072;2024-01-06T09:31:49;16.81;64.05
73780;SHT30;62093;37.614;15.072;2024-01-06T09:34:15;16.80;64.00
73780;SHT30;62093;37.614;15.072;2024-01-06T09:36:41;16.81;64.05
73780;SHT30;62093;37.614;15.072;2024-01-06T09:39:07;16.83;64.00
73780;SHT30;62093;37.614;15.072;2024-01-06T09:41:34;16.84;64.03
73780;SHT30;62093;37.614;15.072;2024-01-06T09:44:00;16.81;64.01
73780;SHT30;62093;37.614;15.072;2024-01-06T09:46:29;16.81;63.98
73780;SHT30;62093;37.614;15.072;2024-01-06T09:48:56;16.84;64.00
73780;SHT30;62093;37.614;15.072;2024-01-06T09:51:23;16.85;63.98
73780;SHT30;62093;37.614;15.072;2024-01-06T09:54:01;16.84;63.97
73780;SHT30;62093;37.614;15.072;2024-01-06T09:56:28;16.84;63.99
73780;SHT30;62093;37.614;15.072;2024-01-06T09:58:55;16.84;63.97
73780;SHT30;62093;37.614;15.072;2024-01-06T10:01:21;16.87;63.90
73780;SHT30;62093;37.614;15.072;2024-01-06T10:03:48;16.88;63.90
73780;SHT30;62093;37.614;15.072;2024-01-06T10:06:14;16.88;63.84
73780;SHT30;62093;37.614;15.072;2024-01-06T10:08:46;16.90;63.84
73780;SHT30;62093;37.614;15.072;2024-01-06T10:11:13;16.91;63.83
73780;SHT30;62093;37.614;15.072;2024-01-06T10:13:39;16.90;63.82
73780;SHT30;62093;37.614;15.072;2024-01-06T10:16:07;16.88;63.80
73780;SHT30;62093;37.614;15.072;2024-01-06T10:18:33;16.91;63.87
73780;SHT30;62093;37.614;15.072;2024-01-06T10:21:05;16.95;63.87
73780;SHT30;62093;37.614;15.072;2024-01-06T10:23:32;16.97;63.79
73780;SHT30;62093;37.614;15.072;2024-01-06T10:25:58;16.95;63.86
73780;SHT30;62093;37.614;15.072;2024-01-06T10:28:24;16.97;63.80
73780;SHT30;62093;37.614;15.072;2024-01-06T10:30:55;16.95;63.83
73780;SHT30;62093;37.614;15.072;2024-01-06T10:33:25;16.99;63.80
73780;SHT30;62093;37.614;15.072;2024-01-06T10:35:52;16.99;63.77
73780;SHT30;62093;37.614;15.072;2024-01-06T10:38:18;17.00;63.77
73780;SHT30;62093;37.614;15.072;2024-01-06T10:43:25;17.00;63.90
73780;SHT30;62093;37.614;15.072;2024-01-06T10:45:53;17.00;63.96
73780;SHT30;62093;37.614;15.072;2024-01-06T10:48:25;17.00;63.98
73780;SHT30;62093;37.614;15.072;2024-01-06T10:50:53;17.01;64.01
73780;SHT30;62093;37.614;15.072;2024-01-06T10:53:20;17.03;64.02
73780;SHT30;62093;37.614;15.072;2024-01-06T10:55:49;17.03;64.08
73780;SHT30;62093;37.614;15.072;2024-01-06T10:58:17;17.01;64.09
73780;SHT30;62093;37.614;15.072;2024-01-06T11:00:43;17.03;64.15
73780;SHT30;62093;37.614;15.072;2024-01-06T11:03:09;17.03;64.13
73780;SHT30;62093;37.614;15.072;2024-01-06T11:05:36;17.04;64.12
73780;SHT30;62093;37.614;15.072;2024-01-06T11:08:04;17.04;64.09
73780;SHT30;62093;37.614;15.072;2024-01-06T11:10:31;17.04;64.03
73780;SHT30;62093;37.614;15.072;2024-01-06T11:13:12;17.00;64.07
73780;SHT30;62093;37.614;15.072;2024-01-06T11:15:51;17.01;64.09
73780;SHT30;62093;37.614;15.072;2024-01-06T11:18:38;17.01;64.08
73780;SHT30;62093;37.614;15.072;2024-01-06T11:21:22;17.03;64.05
73780;SHT30;62093;37.614;15.072;2024-01-06T11:24:15;17.03;63.97
73780;SHT30;62093;37.614;15.072;2024-01-06T11:26:43;17.03;63.85
73780;SHT30;62093;37.614;15.072;2024-01-06T11:29:10;17.00;63.87
73780;SHT30;62093;37.614;15.072;2024-01-06T11:31:37;17.01;63.86
73780;SHT30;62093;37.614;15.072;2024-01-06T11:34:18;17.01;63.81
73780;SHT30;62093;37.614;15.072;2024-01-06T11:36:50;17.00;63.85
73780;SHT30;62093;37.614;15.072;2024-01-06T11:39:38;16.99;63.91
73780;SHT30;62093;37.614;15.072;2024-01-06T11:42:09;17.01;63.83
73780;SHT30;62093;37.614;15.072;2024-01-06T11:44:39;16.99;63.81
73780;SHT30;62093;37.614;15.072;2024-01-06T11:47:06;16.99;63.79
73780;SHT30;62093;37.614;15.072;2024-01-06T11:49:32;16.97;63.78
73780;SHT30;62093;37.614;15.072;2024-01-06T11:51:59;16.95;63.74
73780;SHT30;62093;37.614;15.072;2024-01-06T11:54:25;16.94;63.63
73780;SHT30;62093;37.614;15.072;2024-01-06T11:56:51;16.97;63.55
73780;SHT30;62093;37.614;15.072;2024-01-06T11:59:21;16.94;63.64
73780;SHT30;62093;37.614;15.072;2024-01-06T12:01:47;16.93;63.49
73780;SHT30;62093;37.614;15.072;2024-01-06T12:04:14;16.91;63.32
73780;SHT30;62093;37.614;15.072;2024-01-06T12:06:41;16.91;63.36
73780;SHT30;62093;37.614;15.072;2024-01-06T12:09:09;16.88;63.17
73780;SHT30;62093;37.614;15.072;2024-01-06T12:11:36;16.90;63.09
73780;SHT30;62093;37.614;15.072;2024-01-06T12:14:05;16.88;63.15
73780;SHT30;62093;37.614;15.072;2024-01-06T12:16:31;16.87;63.20
73780;SHT30;62093;37.614;15.072;2024-01-06T12:18:59;16.85;62.73
73780;SHT30;62093;37.614;15.072;2024-01-06T12:21:27;16.84;63.05
73780;SHT30;62093;37.614;15.072;2024-01-06T12:23:54;16.81;62.94
73780;SHT30;62093;37.614;15.072;2024-01-06T12:26:20;16.77;63.17
73780;SHT30;62093;37.614;15.072;2024-01-06T12:28:47;16.76;63.04
73780;SHT30;62093;37.614;15.072;2024-01-06T12:31:14;16.70;63.33
73780;SHT30;62093;37.614;15.072;2024-01-06T12:33:41;16.69;63.09
73780;SHT30;62093;37.614;15.072;2024-01-06T12:36:07;16.60;63.21
73780;SHT30;62093;37.614;15.072;2024-01-06T12:38:42;16.56;63.38
73780;SHT30;62093;37.614;15.072;2024-01-06T12:41:08;16.53;63.51
73780;SHT30;62093;37.614;15.072;2024-01-06T12:43:35;16.49;63.63
73780;SHT30;62093;37.614;15.072;2024-01-06T12:46:01;16.48;63.68
73780;SHT30;62093;37.614;15.072;2024-01-06T12:48:27;16.43;63.89
73780;SHT30;62093;37.614;15.072;2024-01-06T12:50:53;16.38;63.90
73780;SHT30;62093;37.614;15.072;2024-01-06T12:53:18;16.35;63.98
73780;SHT30;62093;37.614;15.072;2024-01-06T12:55:44;16.35;63.92
73780;SHT30;62093;37.614;15.072;2024-01-06T12:58:10;16.30;64.10
73780;SHT30;62093;37.614;15.072;2024-01-06T13:00:37;16.28;64.15
73780;SHT30;62093;37.614;15.072;2024-01-06T13:03:03;16.23;64.11
73780;SHT30;62093;37.614;15.072;2024-01-06T13:05:30;16.21;64.25
73780;SHT30;62093;37.614;15.072;2024-01-06T13:07:56;16.22;64.21
73780;SHT30;62093;37.614;15.072;2024-01-06T13:10:23;16.18;63.99
73780;SHT30;62093;37.614;15.072;2024-01-06T13:12:49;16.15;64.12
73780;SHT30;62093;37.614;15.072;2024-01-06T13:15:15;16.13;64.04
73780;SHT30;62093;37.614;15.072;2024-01-06T13:17:41;16.11;64.25
73780;SHT30;62093;37.614;15.072;2024-01-06T13:20:08;16.12;64.32
73780;SHT30;62093;37.614;15.072;2024-01-06T13:22:34;16.11;64.17
73780;SHT30;62093;37.614;15.072;2024-01-06T13:25:00;16.11;64.02
73780;SHT30;62093;37.614;15.072;2024-01-06T13:27:26;16.11;64.14
73780;SHT30;62093;37.614;15.072;2024-01-06T13:29:54;16.08;63.97
73780;SHT30;62093;37.614;15.072;2024-01-06T13:32:20;16.06;64.04
73780;SHT30;62093;37.614;15.072;2024-01-06T13:34:48;16.05;64.23
73780;SHT30;62093;37.614;15.072;2024-01-06T13:37:19;16.09;64.11
73780;SHT30;62093;37.614;15.072;2024-01-06T13:39:48;16.05;64.22
73780;SHT30;62093;37.614;15.072;2024-01-06T13:42:14;16.02;64.00
73780;SHT30;62093;37.614;15.072;2024-01-06T13:44:39;16.02;64.08
73780;SHT30;62093;37.614;15.072;2024-01-06T13:47:05;16.02;64.10
73780;SHT30;62093;37.614;15.072;2024-01-06T13:49:32;16.00;63.94
73780;SHT30;62093;37.614;15.072;2024-01-06T13:51:58;15.98;64.06
73780;SHT30;62093;37.614;15.072;2024-01-06T13:54:24;15.95;64.07
73780;SHT30;62093;37.614;15.072;2024-01-06T13:56:50;15.97;64.31
73780;SHT30;62093;37.614;15.072;2024-01-06T13:59:17;15.97;63.85
73780;SHT30;62093;37.614;15.072;2024-01-06T14:01:43;15.94;64.22
73780;SHT30;62093;37.614;15.072;2024-01-06T14:04:09;15.97;64.04
73780;SHT30;62093;37.614;15.072;2024-01-06T14:06:35;15.94;64.11
73780;SHT30;62093;37.614;15.072;2024-01-06T14:09:01;15.95;64.04
73780;SHT30;62093;37.614;15.072;2024-01-06T14:11:28;15.90;64.02
73780;SHT30;62093;37.614;15.072;2024-01-06T14:13:57;15.91;63.81
73780;SHT30;62093;37.614;15.072;2024-01-06T14:16:23;15.88;64.08
73780;SHT30;62093;37.614;15.072;2024-01-06T14:18:49;15.90;63.77
73780;SHT30;62093;37.614;15.072;2024-01-06T14:21:15;15.94;64.03
73780;SHT30;62093;37.614;15.072;2024-01-06T14:23:47;15.95;64.18
73780;SHT30;62093;37.614;15.072;2024-01-06T14:26:18;15.94;64.16
73780;SHT30;62093;37.614;15.072;2024-01-06T14:28:46;15.94;64.47
73780;SHT30;62093;37.614;15.072;2024-01-06T14:31:12;15.94;63.69
73780;SHT30;62093;37.614;15.072;2024-01-06T14:33:38;15.97;64.77
73780;SHT30;62093;37.614;15.072;2024-01-06T14:36:04;15.92;63.96
73780;SHT30;62093;37.614;15.072;2024-01-06T14:38:31;15.94;64.31
73780;SHT30;62093;37.614;15.072;2024-01-06T14:40:57;15.94;64.06
73780;SHT30;62093;37.614;15.072;2024-01-06T14:43:23;15.94;64.08
73780;SHT30;62093;37.614;15.072;2024-01-06T14:45:48;15.94;64.19
73780;SHT30;62093;37.614;15.072;2024-01-06T14:48:14;15.92;64.31
73780;SHT30;62093;37.614;15.072;2024-01-06T14:50:40;15.91;64.10
73780;SHT30;62093;37.614;15.072;2024-01-06T14:53:06;15.91;64.30
73780;SHT30;62093;37.614;15.072;2024-01-06T14:55:32;15.92;63.95
73780;SHT30;62093;37.614;15.072;2024-01-06T14:57:58;15.90;63.62
73780;SHT30;62093;37.614;15.072;2024-01-06T15:00:25;15.92;64.45
73780;SHT30;62093;37.614;15.072;2024-01-06T15:02:51;15.88;64.42
73780;SHT30;62093;37.614;15.072;2024-01-06T15:05:17;15.91;64.32
73780;SHT30;62093;37.614;15.072;2024-01-06T15:07:43;15.84;63.45
73780;SHT30;62093;37.614;15.072;2024-01-06T15:10:09;15.85;63.56
73780;SHT30;62093;37.614;15.072;2024-01-06T15:12:36;15.85;63.36
73780;SHT30;62093;37.614;15.072;2024-01-06T15:15:02;15.85;64.51
73780;SHT30;62093;37.614;15.072;2024-01-06T15:17:28;15.85;63.93